7°C
Gosport, Hampshire, United Kingdom
Language:  English
Updated23/04/2021 00:15:00 
 

Nearby METAR Reports

 

EGHI - Southampton Wx Centre, United Kingdom
Distance from station: NW 15mi, 24km
Updated: 22-Apr-2021 19:20:00
NOT Current
Clear
Clear
 Wind from ESE
Wind: ESE 5 mph , 7 km/h
Temperature: 12°C
Dew Point: 4°C
Humidity: 58%
Barometer: 1026 hPa
Summary: Clear
Visibility: greater than 7 miles , 10 km
2021/04/22 18:20 EGHI 221820Z 12004KT 080V170 CAVOK 12/04 Q1026
EGHH - Bournemouth Airport, United Kingdom
Distance from station: W 30mi, 49km
Updated: 22-Apr-2021 19:50:00
NOT Current
Clear
Clear
 Wind from ESE
Wind: ESE 7 mph , 11 km/h
Temperature: 11°C
Dew Point: 1°C
Humidity: 50%
Barometer: 1026 hPa
Summary: Clear
Visibility: greater than 7 miles , 10 km
2021/04/22 18:50 EGHH 221850Z 12006KT CAVOK 11/01 Q1026
EGVP - Middle Wallop Airfield, United Kingdom
Distance from station: NW 31mi, 49km
Updated: 22-Apr-2021 23:50:00
Clear
Clear
 Wind from ENE
Wind: ENE 6 mph , 9 km/h
Temperature: 6°C
Wind Chill: 4°C
Dew Point: -5°C
Humidity: 46%
Barometer: 1027 hPa
Clouds: Clear
Visibility: 6 miles , 10 km
2021/04/22 22:50 EGVP 222250Z AUTO 07005KT 9999 NCD 06/M05 Q1027
 
EGVO - RAF Odiham, United Kingdom
Distance from station: NNE 32mi, 52km
Updated: 22-Apr-2021 23:50:00
Clear
Clear
 Wind from ENE
Wind: ENE 5 mph , 7 km/h
Temperature: 4°C
Wind Chill: 2°C
Dew Point: -1°C
Humidity: 70%
Barometer: 1027 hPa
Summary: Clear
Visibility: greater than 7 miles , 10 km
2021/04/22 22:50 EGVO 222250Z 07004KT CAVOK 04/M01 Q1027 NOSIG RMK BLU BLU
EGKA - Shoreham Airport, United Kingdom
Distance from station: E 37mi, 59km
Updated: 22-Apr-2021 19:50:00
NOT Current
Clear
Clear
 Wind from ENE
Wind: ENE 12 mph , 19 km/h
Temperature: 11°C
Dew Point: -1°C
Humidity: 44%
Barometer: 1026 hPa
Summary: Clear
Visibility: greater than 7 miles , 10 km
2021/04/22 18:50 EGKA 221850Z 06010KT CAVOK 11/M01 Q1026
EGDM - Boscombe Down, United Kingdom
Distance from station: NW 38mi, 61km
Updated: 22-Apr-2021 23:50:00
Clear
Clear
 Wind from E
Wind: E 10 mph , 17 km/h
Temperature: 4°C
Wind Chill: 0°C
Dew Point: -5°C
Humidity: 52%
Barometer: 1027 hPa
Clouds: Clear
Visibility: 6 miles , 10 km
2021/04/22 22:50 EGDM 222250Z AUTO 08009KT 9999 NCD 04/M05 Q1027
 
EGLF - Farnborough, United Kingdom
Distance from station: NNE 38mi, 61km
Updated: 22-Apr-2021 23:50:00
Clear
Clear
 Wind from ENE
Wind: ENE 9 mph , 15 km/h
Temperature: 4°C
Wind Chill: 1°C
Dew Point: 0°C
Humidity: 75%
Barometer: 1028 hPa
Clouds: Clear
Visibility: 6 miles , 10 km
2021/04/22 22:50 EGLF 222250Z AUTO 07008KT 9999 NCD 04/00 Q1028
EGKK - Gatwick Airport, United Kingdom
Distance from station: ENE 49mi, 78km
Updated: 22-Apr-2021 23:50:00
Clear
Clear
 Wind from ENE
Wind: ENE 7 mph , 11 km/h
Temperature: 3°C
Wind Chill: 0°C
Dew Point: 1°C
Humidity: 87%
Barometer: 1028 hPa
Summary: Clear
Visibility: greater than 7 miles , 10 km
2021/04/22 22:50 EGKK 222250Z 06006KT CAVOK 03/01 Q1028
EGLL - Heathrow Airport, United Kingdom
Distance from station: NNE 57mi, 91km
Updated: 22-Apr-2021 23:50:00
Clear
Clear
 Wind from E
Wind: E 8 mph , 13 km/h
Temperature: 5°C
Wind Chill: 2°C
Dew Point: 2°C
Humidity: 81%
Barometer: 1028 hPa
Clouds: Clear
Visibility: 6 miles , 10 km
2021/04/22 22:50 EGLL 222250Z AUTO 09007KT 9999 NCD 05/02 Q1028 NOSIG
 
EGUB - RAF Benson, United Kingdom
Distance from station: N 58mi, 93km
Updated: 22-Apr-2021 23:50:00
Clear
Clear
 Wind from NNE
Wind: NNE 2 mph , 4 km/h
Temperature: 4°C
Dew Point: -1°C
Humidity: 70%
Barometer: 1028 hPa
Summary: Clear
Visibility: greater than 7 miles , 10 km
2021/04/22 22:50 EGUB 222250Z 03002KT CAVOK 04/M01 Q1028 NOSIG RMK BLU BLU
EGWU - RAF Northolt, United Kingdom
Distance from station: NNE 62mi, 99km
Updated: 22-Apr-2021 23:50:00
Clear
Clear
 Wind from E
Wind: E 7 mph , 11 km/h
Temperature: 6°C
Wind Chill: 4°C
Dew Point: 2°C
Humidity: 76%
Barometer: 1028 hPa
Clouds: Clear
Visibility: 6 miles , 10 km
2021/04/22 22:50 EGWU 222250Z AUTO 09006KT 9999 // NCD 06/02 Q1028
EGKB - Biggin Hill Airport, United Kingdom
Distance from station: NE 62mi, 100km
Updated: 22-Apr-2021 22:50:00
NOT Current
Clear
Clear
 Wind from E
Wind: E 5 mph , 7 km/h
Temperature: 2°C
Wind Chill: 0°C
Dew Point: 1°C
Humidity: 93%
Barometer: 1028 hPa
Summary: Clear
Visibility: greater than 7 miles , 10 km
2021/04/22 21:50 EGKB 222150Z 10004KT CAVOK 02/01 Q1028
 
EGDY - RNAS Yeovilton, United Kingdom
Distance from station: WNW 66mi, 107km
Updated: 22-Apr-2021 23:50:00
Clear
Clear
 Wind from ENE
Wind: ENE 5 mph , 7 km/h
Temperature: 7°C
Wind Chill: 6°C
Dew Point: 2°C
Humidity: 71%
Barometer: 1026 hPa
Clouds: Clear
Visibility: 6 miles , 10 km
2021/04/22 22:50 EGDY 222250Z AUTO 07004KT 9999 NCD 07/02 Q1026
EGUO - Colerne Airfield, United Kingdom
Distance from station: NW 67mi, 108km
Updated: 14-Feb-2019 22:50:00
NOT Current
Clear
Clear
 Wind from ENE
Wind: ENE 1 mph , 2 km/h
Temperature: 1°C
Dew Point: 0°C
Humidity: 93%
Barometer: 1029 hPa
Summary: Clear
Visibility: greater than 7 miles , 10 km
2019/02/14 22:50 EGUO 142250Z 06001KT CAVOK 01/00 Q1029 BLU NOSIG
EGVA - RAF Fairford, United Kingdom
Distance from station: NNW 67mi, 108km
Updated: 22-Apr-2021 23:56:00
Clear
Clear
 Wind from E
Wind: E 6 mph , 9 km/h
Temperature: 6°C
Wind Chill: 4°C
Dew Point: -3°C
Humidity: 53%
Barometer: 1027.1 hPa
Clouds: Clear
Visibility: 6 miles , 10 km
2021/04/22 22:56 EGVA 222256Z AUTO 09005KT 9999 CLR 06/M03 A3033 RMK AO2 SLP276 T00621029 $
 
EGVN - RAF Brize Norton, United Kingdom
Distance from station: NNW 71mi, 114km
Updated: 22-Apr-2021 23:50:00
Clear
Clear
 Wind from E
Wind: E 3 mph , 6 km/h
Temperature: 7°C
Dew Point: -2°C
Humidity: 53%
Barometer: 1028 hPa
Summary: Clear
Visibility: greater than 7 miles , 10 km
2021/04/22 22:50 EGVN 222250Z 08003KT CAVOK 07/M02 Q1028 NOSIG RMK BLU BLU
EGLC - London City Airport, United Kingdom
Distance from station: NE 71mi, 115km
Updated: 22-Apr-2021 23:50:00
Clear
Clear
 Wind from ENE
Wind: ENE 8 mph , 13 km/h
Temperature: 6°C
Wind Chill: 3°C
Dew Point: 3°C
Humidity: 81%
Barometer: 1029 hPa
Clouds: Clear
Visibility: 6 miles , 10 km
2021/04/22 22:50 EGLC 222250Z AUTO 07007KT 9999 NCD 06/03 Q1029
EGGD - Bristol Airport, United Kingdom
Distance from station: WNW 80mi, 128km
Updated: 22-Apr-2021 23:50:00
Clear
Clear
 Wind from E
Wind: E 9 mph , 15 km/h
Temperature: 5°C
Wind Chill: 2°C
Dew Point: -4°C
Humidity: 53%
Barometer: 1026 hPa
Clouds: Clear
Visibility: 6 miles , 10 km
2021/04/22 22:50 EGGD 222250Z AUTO 09008KT 9999 NCD 05/M04 Q1026
 
LFRC - Cherbourg-Maupertus Airport, France
Distance from station: S 81mi, 130km
Updated: 23-Apr-2021 00:00:00
Clear
Clear
 Wind from E
Wind: E 16 mph , 26 km/h
Temperature: 7°C
Wind Chill: 3°C
Dew Point: 6°C
Humidity: 93%
Barometer: 1025 hPa
Summary: Clear
Visibility: greater than 7 miles , 10 km
2021/04/22 23:00 LFRC 222300Z AUTO 09014KT CAVOK 07/06 Q1025
EGGW - Luton Airport, United Kingdom
Distance from station: NNE 82mi, 132km
Updated: 22-Apr-2021 23:50:00
Clear
Clear
 Wind from ESE
Wind: ESE 5 mph , 7 km/h
Temperature: 3°C
Wind Chill: 1°C
Dew Point: 1°C
Humidity: 87%
Barometer: 1028 hPa
Clouds: Clear
Visibility: 6 miles , 10 km
2021/04/22 22:50 EGGW 222250Z AUTO 12004KT 9999 NCD 03/01 Q1028